Time;durP1;ratioP1;P1;durP2;ratioP2;P2;SDS_P1;SDS_P2;PMS_P1;PMS_P2;Temp;Humidity;BMP_temperature;BMP_pressure;BME280_temperature;BME280_humidity;BME280_pressure;Samples;Min_cycle;Max_cycle;Signal;HPM_P1;HPM_P2
2023/11/26 00:00:17;;;;;;;14.52;9.77;;;7.60;81.60;;;;;;4994627;28;20026;-88
2023/11/26 00:02:44;;;;;;;12.82;9.18;;;7.60;81.60;;;;;;5006519;28;20030;-88
2023/11/26 00:05:10;;;;;;;15.13;9.38;;;7.60;81.50;;;;;;5007323;28;20034;-87
2023/11/26 00:07:36;;;;;;;15.45;9.75;;;7.70;81.80;;;;;;4987046;28;20113;-86
2023/11/26 00:10:02;;;;;;;13.95;9.25;;;7.60;81.40;;;;;;4993815;28;20042;-86
2023/11/26 00:12:28;;;;;;;13.95;9.45;;;7.60;81.40;;;;;;5011651;28;20030;-87
2023/11/26 00:14:54;;;;;;;15.55;9.88;;;7.60;81.50;;;;;;5010476;28;20030;-84
2023/11/26 00:17:20;;;;;;;15.35;9.68;;;7.60;81.50;;;;;;4972810;28;20469;-84
2023/11/26 00:19:46;;;;;;;14.02;9.57;;;7.60;81.50;;;;;;4987738;28;20042;-86
2023/11/26 00:22:12;;;;;;;14.25;9.48;;;7.60;81.50;;;;;;4986586;28;20046;-84
2023/11/26 00:24:38;;;;;;;12.65;9.38;;;7.60;81.60;;;;;;4985539;28;20037;-85
2023/11/26 00:27:05;;;;;;;12.95;9.18;;;7.60;81.60;;;;;;5004016;28;20091;-85
2023/11/26 00:29:40;;;;;;;13.38;9.30;;;7.60;81.90;;;;;;4987560;28;20042;-84
2023/11/26 00:32:07;;;;;;;12.95;8.75;;;7.60;82.10;;;;;;5003289;28;20038;-85
2023/11/26 00:34:34;;;;;;;14.27;9.27;;;7.60;82.10;;;;;;4986745;28;20038;-86
2023/11/26 00:37:00;;;;;;;13.25;9.15;;;7.60;81.90;;;;;;5004935;28;20133;-84
2023/11/26 00:39:27;;;;;;;13.75;8.95;;;7.60;82.00;;;;;;4974343;28;20038;-85
2023/11/26 00:41:54;;;;;;;14.27;9.75;;;7.60;81.70;;;;;;4968782;28;20581;-85
2023/11/26 00:44:23;;;;;;;14.88;9.73;;;7.60;81.80;;;;;;4968898;28;20044;-84
2023/11/26 00:46:49;;;;;;;12.23;8.38;;;7.60;81.60;;;;;;4986539;28;20029;-85
2023/11/26 00:49:15;;;;;;;16.90;9.65;;;7.60;81.40;;;;;;4984467;28;20038;-85
2023/11/26 00:51:41;;;;;;;15.95;9.48;;;7.60;81.40;;;;;;4989881;28;20033;-85
2023/11/26 00:54:08;;;;;;;12.48;8.70;;;7.60;81.40;;;;;;5002346;28;20038;-85
2023/11/26 00:56:34;;;;;;;15.18;9.65;;;7.60;81.40;;;;;;4959216;28;20102;-87
2023/11/26 00:59:00;;;;;;;14.75;9.15;;;7.60;81.40;;;;;;4986028;28;20117;-87
2023/11/26 01:01:26;;;;;;;13.95;9.35;;;7.60;81.40;;;;;;4987139;28;20038;-86
2023/11/26 01:03:52;;;;;;;15.07;9.68;;;7.60;81.20;;;;;;5003976;28;20038;-86
2023/11/26 01:06:18;;;;;;;13.18;9.02;;;7.60;81.20;;;;;;4968596;28;20042;-85
2023/11/26 01:08:44;;;;;;;14.57;9.38;;;7.60;81.00;;;;;;5002679;28;20050;-86
2023/11/26 01:11:15;;;;;;;15.20;10.10;;;7.60;81.00;;;;;;4969996;28;20497;-86
2023/11/26 01:13:41;;;;;;;16.00;10.00;;;7.60;81.20;;;;;;4985135;28;20038;-87
2023/11/26 01:16:08;;;;;;;14.05;9.38;;;7.50;81.20;;;;;;4970500;28;20472;-86
2023/11/26 01:18:38;;;;;;;14.45;9.82;;;7.60;81.40;;;;;;5014476;28;20086;-87
2023/11/26 01:21:05;;;;;;;14.45;9.43;;;7.60;81.70;;;;;;4998111;28;20037;-85
2023/11/26 01:23:31;;;;;;;15.70;10.38;;;7.60;81.70;;;;;;4984813;28;20087;-83
2023/11/26 01:25:57;;;;;;;13.90;9.65;;;7.60;81.70;;;;;;4990683;28;20124;-81
2023/11/26 01:28:23;;;;;;;15.88;9.95;;;7.60;81.60;;;;;;5003361;28;20160;-84
2023/11/26 01:30:49;;;;;;;13.90;9.77;;;7.60;81.50;;;;;;4983719;28;20045;-85
2023/11/26 01:33:18;;;;;;;15.40;10.65;;;7.60;81.50;;;;;;4969024;28;20034;-89
2023/11/26 01:35:44;;;;;;;14.50;9.48;;;7.60;81.30;;;;;;4984994;28;20480;-87
2023/11/26 01:38:10;;;;;;;15.57;10.00;;;7.50;81.00;;;;;;5000878;28;20117;-86
2023/11/26 01:40:40;;;;;;;16.98;10.02;;;7.60;81.10;;;;;;4986937;28;20044;-87
2023/11/26 01:43:06;;;;;;;13.93;8.75;;;7.50;80.90;;;;;;4983838;28;20042;-84
2023/11/26 01:45:32;;;;;;;14.60;9.85;;;7.60;81.00;;;;;;4951336;28;20501;-88
2023/11/26 01:47:59;;;;;;;14.90;9.75;;;7.60;81.10;;;;;;5000666;28;20043;-87
2023/11/26 01:50:26;;;;;;;13.85;9.25;;;7.50;80.90;;;;;;5001840;28;20033;-86
2023/11/26 01:52:54;;;;;;;14.48;9.07;;;7.50;80.90;;;;;;5001883;28;20037;-85
2023/11/26 01:55:21;;;;;;;13.68;9.38;;;7.50;80.80;;;;;;4975593;28;20117;-90
2023/11/26 01:57:48;;;;;;;13.65;9.40;;;7.50;80.80;;;;;;5001962;28;20612;-88
2023/11/26 02:00:18;;;;;;;14.57;9.25;;;7.50;80.60;;;;;;4990349;28;20038;-87
2023/11/26 02:02:46;;;;;;;18.17;9.45;;;7.50;80.70;;;;;;4985829;28;21780;-86
2023/11/26 02:05:13;;;;;;;12.73;8.98;;;7.50;80.90;;;;;;4968987;28;20061;-87
2023/11/26 02:07:39;;;;;;;15.85;8.93;;;7.50;81.00;;;;;;4969712;28;20042;-89
2023/11/26 02:10:07;;;;;;;11.85;8.68;;;7.50;81.30;;;;;;4985811;28;20132;-86
2023/11/26 02:12:33;;;;;;;14.45;9.48;;;7.50;81.40;;;;;;5002401;28;20038;-87
2023/11/26 02:15:01;;;;;;;15.40;8.88;;;7.50;81.10;;;;;;4961704;28;20637;-87
2023/11/26 02:17:30;;;;;;;14.43;8.95;;;7.50;81.40;;;;;;4969449;28;20141;-85
2023/11/26 02:20:02;;;;;;;16.23;9.10;;;7.50;81.00;;;;;;4984762;28;20520;-88
2023/11/26 02:22:34;;;;;;;13.82;9.38;;;7.50;80.70;;;;;;5002238;28;20652;-87
2023/11/26 02:25:00;;;;;;;14.25;9.15;;;7.50;80.90;;;;;;4972190;28;20057;-87
2023/11/26 02:27:26;;;;;;;14.05;8.57;;;7.50;80.80;;;;;;5003635;28;20406;-83
2023/11/26 02:29:52;;;;;;;13.25;9.38;;;7.50;80.80;;;;;;5005628;28;20034;-87
2023/11/26 02:32:18;;;;;;;16.70;9.02;;;7.50;80.50;;;;;;4968513;28;20041;-88
2023/11/26 02:34:44;;;;;;;13.63;9.30;;;7.50;80.60;;;;;;5002372;28;20041;-89
2023/11/26 02:37:10;;;;;;;11.82;8.70;;;7.50;80.60;;;;;;4985581;28;20037;-86
2023/11/26 02:39:36;;;;;;;14.13;9.15;;;7.50;80.60;;;;;;5013031;28;20034;-88
2023/11/26 02:42:02;;;;;;;13.63;8.50;;;7.50;80.60;;;;;;4988177;28;20048;-88
2023/11/26 02:44:28;;;;;;;11.85;8.32;;;7.50;80.50;;;;;;5002891;28;20040;-87
2023/11/26 02:46:54;;;;;;;11.45;7.78;;;7.50;80.60;;;;;;5021502;28;20068;-85
2023/11/26 02:49:20;;;;;;;11.35;8.45;;;7.50;81.10;;;;;;5018317;28;20037;-85
2023/11/26 02:51:46;;;;;;;11.88;8.35;;;7.50;80.60;;;;;;5015692;28;20049;-81
2023/11/26 02:54:14;;;;;;;12.93;8.10;;;7.50;80.50;;;;;;4996721;28;20038;-84
2023/11/26 02:56:44;;;;;;;12.48;8.00;;;7.50;80.40;;;;;;4956294;28;20164;-87
2023/11/26 02:59:10;;;;;;;10.07;7.22;;;7.50;80.40;;;;;;4988552;28;20037;-85
2023/11/26 03:01:36;;;;;;;13.90;8.35;;;7.50;80.40;;;;;;4974557;28;20079;-86
2023/11/26 03:04:03;;;;;;;11.40;7.57;;;7.50;81.00;;;;;;4962135;28;20042;-87
2023/11/26 03:06:31;;;;;;;11.52;7.82;;;7.50;80.40;;;;;;4992684;28;20038;-87
2023/11/26 03:09:00;;;;;;;13.05;8.40;;;7.50;80.30;;;;;;4971579;28;20187;-86
2023/11/26 03:14:13;;;;;;;11.40;8.15;;;7.50;80.40;;;;;;4998509;28;20377;-86
2023/11/26 03:16:39;;;;;;;14.07;7.63;;;7.50;80.20;;;;;;4999222;28;20034;-84
2023/11/26 03:19:08;;;;;;;11.93;7.88;;;7.40;80.20;;;;;;4998459;28;20037;-84
2023/11/26 03:21:36;;;;;;;12.35;8.13;;;7.50;80.20;;;;;;4985413;28;20041;-84
2023/11/26 03:24:04;;;;;;;11.70;7.90;;;7.50;80.30;;;;;;5003629;28;20030;-84
2023/11/26 03:26:30;;;;;;;11.50;7.78;;;7.50;80.10;;;;;;5001046;28;20927;-82
2023/11/26 03:28:56;;;;;;;11.82;7.75;;;7.50;80.30;;;;;;4982804;28;20096;-84
2023/11/26 03:31:23;;;;;;;11.20;7.13;;;7.50;80.20;;;;;;4983752;28;20519;-82
2023/11/26 03:33:49;;;;;;;11.57;7.28;;;7.50;80.20;;;;;;4966876;28;20500;-83
2023/11/26 03:36:15;;;;;;;11.25;7.70;;;7.50;80.50;;;;;;5006015;28;20034;-82
2023/11/26 03:38:41;;;;;;;11.48;8.07;;;7.50;80.60;;;;;;4971958;28;20040;-82
2023/11/26 03:41:08;;;;;;;10.88;7.72;;;7.40;80.40;;;;;;5004552;28;20030;-82
2023/11/26 03:43:35;;;;;;;11.27;7.80;;;7.50;80.30;;;;;;5010029;28;20185;-84
2023/11/26 03:46:01;;;;;;;13.20;7.75;;;7.50;80.20;;;;;;4974785;28;20469;-83
2023/11/26 03:48:28;;;;;;;11.27;7.88;;;7.50;80.10;;;;;;5014210;28;20060;-83
2023/11/26 03:50:54;;;;;;;13.38;7.82;;;7.50;79.90;;;;;;4986219;28;20029;-86
2023/11/26 03:53:20;;;;;;;10.90;7.93;;;7.50;80.40;;;;;;4985448;28;20030;-86
2023/11/26 03:55:46;;;;;;;15.25;8.35;;;7.40;79.70;;;;;;4987051;28;20026;-86
2023/11/26 03:58:12;;;;;;;11.73;7.88;;;7.50;79.60;;;;;;5006291;28;20065;-86
2023/11/26 04:00:38;;;;;;;12.07;7.47;;;7.50;79.50;;;;;;4986666;28;20429;-87
2023/11/26 04:03:04;;;;;;;11.98;7.57;;;7.50;79.60;;;;;;4984778;28;20036;-85
2023/11/26 04:05:30;;;;;;;11.05;7.43;;;7.40;79.30;;;;;;4965094;28;20105;-85
2023/11/26 04:07:56;;;;;;;10.15;7.32;;;7.50;79.50;;;;;;4984374;28;20491;-85
2023/11/26 04:10:22;;;;;;;11.00;7.65;;;7.50;79.50;;;;;;4982794;28;20038;-85
2023/11/26 04:12:48;;;;;;;11.38;7.38;;;7.50;79.50;;;;;;4998912;28;20500;-85
2023/11/26 04:15:19;;;;;;;10.20;7.07;;;7.40;79.40;;;;;;4982719;28;20066;-85
2023/11/26 04:17:45;;;;;;;11.82;8.23;;;7.40;79.40;;;;;;4986864;28;20034;-86
2023/11/26 04:20:11;;;;;;;11.98;8.35;;;7.50;79.50;;;;;;5000554;28;20038;-87
2023/11/26 04:22:37;;;;;;;12.77;8.48;;;7.40;79.60;;;;;;5001005;28;20045;-88
2023/11/26 04:25:05;;;;;;;12.35;7.75;;;7.40;79.70;;;;;;4968166;28;20026;-86
2023/11/26 04:27:31;;;;;;;11.77;8.45;;;7.50;79.90;;;;;;4965422;28;20030;-87
2023/11/26 04:30:02;;;;;;;12.63;8.98;;;7.40;79.70;;;;;;5001538;28;20148;-87
2023/11/26 04:32:28;;;;;;;12.02;9.63;;;7.40;79.50;;;;;;4985045;28;20046;-84
2023/11/26 04:34:54;;;;;;;11.95;9.10;;;7.40;79.50;;;;;;5002478;28;20041;-87
2023/11/26 04:37:20;;;;;;;12.20;9.57;;;7.40;79.40;;;;;;5007608;28;20484;-87
2023/11/26 04:39:48;;;;;;;13.85;9.88;;;7.50;79.30;;;;;;4971230;28;20057;-82
2023/11/26 04:42:16;;;;;;;12.00;9.65;;;7.40;79.10;;;;;;4983088;28;20138;-86
2023/11/26 04:44:42;;;;;;;16.08;10.55;;;7.50;79.00;;;;;;4982838;28;20548;-89
2023/11/26 04:47:09;;;;;;;13.40;9.55;;;7.40;79.10;;;;;;5005861;28;20480;-87
2023/11/26 04:49:35;;;;;;;14.25;9.68;;;7.40;78.90;;;;;;5003404;28;20042;-88
2023/11/26 04:52:01;;;;;;;12.48;9.88;;;7.40;78.90;;;;;;4968751;28;20062;-87
2023/11/26 04:54:27;;;;;;;12.40;8.90;;;7.40;79.00;;;;;;4986139;28;20073;-84
2023/11/26 04:56:53;;;;;;;11.27;9.10;;;7.40;78.90;;;;;;4971058;28;20249;-90
2023/11/26 04:59:19;;;;;;;12.50;8.95;;;7.40;79.00;;;;;;5008311;28;20053;-88
2023/11/26 05:01:48;;;;;;;12.63;8.43;;;7.40;78.70;;;;;;5006098;28;20022;-87
2023/11/26 05:04:15;;;;;;;12.65;9.32;;;7.40;78.90;;;;;;5003426;28;20034;-89
2023/11/26 05:06:44;;;;;;;13.35;9.10;;;7.40;79.00;;;;;;4971450;28;20041;-88
2023/11/26 05:09:13;;;;;;;12.82;8.93;;;7.40;79.00;;;;;;5001717;28;20061;-88
2023/11/26 05:11:45;;;;;;;18.33;8.48;;;7.40;79.20;;;;;;5004167;28;20113;-89
2023/11/26 05:14:12;;;;;;;14.40;9.20;;;7.40;79.50;;;;;;5002996;28;20042;-86
2023/11/26 05:16:39;;;;;;;11.20;8.05;;;7.40;79.30;;;;;;4972707;28;20060;-89
2023/11/26 05:19:05;;;;;;;11.48;7.95;;;7.40;79.40;;;;;;4992048;28;20006;-89
2023/11/26 05:21:31;;;;;;;12.38;8.30;;;7.40;78.70;;;;;;4991044;28;20433;-83
2023/11/26 05:23:57;;;;;;;10.55;8.43;;;7.40;78.70;;;;;;4986958;28;20058;-88
2023/11/26 05:26:23;;;;;;;12.40;7.90;;;7.40;78.60;;;;;;5001950;28;20531;-86
2023/11/26 05:28:49;;;;;;;11.23;7.63;;;7.40;78.50;;;;;;5004157;28;20038;-88
2023/11/26 05:31:15;;;;;;;12.55;9.00;;;7.40;78.40;;;;;;4987699;28;20040;-88
2023/11/26 05:33:41;;;;;;;12.45;9.18;;;7.40;78.40;;;;;;4983961;28;20047;-88
2023/11/26 05:36:08;;;;;;;13.90;8.88;;;7.40;78.00;;;;;;4985132;28;20085;-85
2023/11/26 05:38:34;;;;;;;14.50;8.90;;;7.40;78.20;;;;;;4984665;28;20129;-86
2023/11/26 05:41:00;;;;;;;13.27;8.77;;;7.40;78.00;;;;;;4971245;28;20120;-85
2023/11/26 05:43:27;;;;;;;12.80;9.07;;;7.40;78.10;;;;;;4988705;28;20507;-87
2023/11/26 05:45:53;;;;;;;12.13;8.68;;;7.40;78.00;;;;;;4978056;28;20041;-85
2023/11/26 05:48:19;;;;;;;14.52;10.00;;;7.30;78.00;;;;;;5001918;28;20042;-87
2023/11/26 05:50:45;;;;;;;12.38;9.05;;;7.40;77.80;;;;;;4986942;28;20081;-92
2023/11/26 05:53:12;;;;;;;14.05;9.32;;;7.30;77.90;;;;;;4953806;28;20029;-87
2023/11/26 05:55:38;;;;;;;13.80;9.32;;;7.30;77.80;;;;;;4986198;28;20022;-87
2023/11/26 05:58:04;;;;;;;14.05;9.13;;;7.40;78.00;;;;;;5003361;28;20046;-87
2023/11/26 06:00:30;;;;;;;14.32;9.63;;;7.30;77.70;;;;;;4984975;28;20501;-85
2023/11/26 06:02:56;;;;;;;14.23;9.85;;;7.40;77.90;;;;;;5001884;28;20125;-86
2023/11/26 06:05:22;;;;;;;14.25;9.60;;;7.30;77.80;;;;;;4999531;28;20521;-87
2023/11/26 06:07:49;;;;;;;15.95;10.25;;;7.40;77.70;;;;;;5001077;28;20501;-87
2023/11/26 06:10:15;;;;;;;14.70;9.70;;;7.40;78.00;;;;;;5002062;28;20116;-84
2023/11/26 06:12:41;;;;;;;15.45;9.98;;;7.40;77.70;;;;;;4988143;28;20033;-87
2023/11/26 06:15:08;;;;;;;14.05;9.38;;;7.30;77.80;;;;;;5003720;28;20041;-83
2023/11/26 06:17:34;;;;;;;13.80;9.60;;;7.40;78.00;;;;;;4998455;28;20034;-84
2023/11/26 06:20:00;;;;;;;16.80;9.73;;;7.30;77.70;;;;;;4990795;28;20405;-85
2023/11/26 06:22:26;;;;;;;14.15;9.25;;;7.30;77.60;;;;;;4984905;28;20065;-88
2023/11/26 06:24:53;;;;;;;15.55;9.20;;;7.30;77.80;;;;;;4986108;28;20065;-88
2023/11/26 06:27:19;;;;;;;14.90;9.32;;;7.30;77.90;;;;;;5002758;28;20038;-86
2023/11/26 06:29:45;;;;;;;14.32;9.35;;;7.40;78.10;;;;;;5002553;28;20049;-86
2023/11/26 06:32:11;;;;;;;15.70;10.40;;;7.30;77.90;;;;;;4969858;28;20944;-84
2023/11/26 06:34:40;;;;;;;13.55;9.63;;;7.30;77.70;;;;;;5003788;28;20048;-87
2023/11/26 06:37:06;;;;;;;20.35;10.30;;;7.40;77.60;;;;;;4980897;28;20092;-86
2023/11/26 06:39:32;;;;;;;15.95;9.98;;;7.30;78.30;;;;;;5013210;28;20034;-83
2023/11/26 06:41:58;;;;;;;15.27;9.38;;;7.40;78.10;;;;;;5014419;28;20097;-88
2023/11/26 06:44:25;;;;;;;13.68;9.82;;;7.40;78.10;;;;;;4975724;28;20041;-87
2023/11/26 06:46:54;;;;;;;15.15;10.05;;;7.40;77.80;;;;;;5002980;28;20042;-85
2023/11/26 06:49:21;;;;;;;17.30;10.35;;;7.40;77.60;;;;;;4966050;28;20037;-81
2023/11/26 06:51:47;;;;;;;14.40;9.15;;;7.40;77.40;;;;;;5000988;28;20035;-82
2023/11/26 06:54:13;;;;;;;17.23;10.45;;;7.40;77.50;;;;;;5001652;28;20042;-84
2023/11/26 06:56:39;;;;;;;14.75;10.07;;;7.40;77.30;;;;;;4978484;28;20057;-88
2023/11/26 06:59:06;;;;;;;15.25;9.55;;;7.40;77.30;;;;;;4995282;28;20029;-85
2023/11/26 07:01:32;;;;;;;16.25;9.15;;;7.40;77.20;;;;;;4997199;28;20076;-86
2023/11/26 07:03:58;;;;;;;14.77;9.63;;;7.40;77.30;;;;;;5000132;28;20042;-83
2023/11/26 07:06:24;;;;;;;13.98;9.48;;;7.40;77.10;;;;;;4999919;28;20094;-82
2023/11/26 07:08:50;;;;;;;15.75;9.90;;;7.40;77.30;;;;;;4998151;28;20457;-84
2023/11/26 07:11:17;;;;;;;17.13;10.30;;;7.40;77.30;;;;;;4998008;28;20199;-85
2023/11/26 07:13:44;;;;;;;19.40;10.80;;;7.40;77.30;;;;;;5001166;28;20072;-84
2023/11/26 07:16:10;;;;;;;18.27;9.40;;;7.40;77.20;;;;;;4983705;28;20463;-83
2023/11/26 07:18:36;;;;;;;15.77;9.93;;;7.40;77.20;;;;;;4986253;28;20037;-80
2023/11/26 07:21:03;;;;;;;14.85;9.57;;;7.40;77.30;;;;;;5000036;28;20093;-84
2023/11/26 07:23:29;;;;;;;17.95;10.70;;;7.40;77.20;;;;;;4997006;28;20436;-83
2023/11/26 07:25:55;;;;;;;15.88;10.00;;;7.40;77.00;;;;;;4967478;28;20061;-82
2023/11/26 07:28:21;;;;;;;16.48;10.65;;;7.50;76.80;;;;;;4998059;28;20042;-83
2023/11/26 07:30:48;;;;;;;15.85;10.30;;;7.50;76.80;;;;;;4996003;28;20436;-80
2023/11/26 07:33:15;;;;;;;17.85;10.88;;;7.50;76.80;;;;;;4998413;28;20041;-82
2023/11/26 07:35:42;;;;;;;18.83;11.50;;;7.50;76.70;;;;;;4999027;28;20104;-84
2023/11/26 07:38:08;;;;;;;17.67;10.68;;;7.50;76.70;;;;;;5003164;28;20037;-80
2023/11/26 07:40:34;;;;;;;16.88;10.88;;;7.50;76.80;;;;;;5002572;28;20039;-81
2023/11/26 07:43:01;;;;;;;15.23;10.02;;;7.50;76.70;;;;;;5001832;28;20042;-84
2023/11/26 07:45:28;;;;;;;17.88;11.20;;;7.50;76.90;;;;;;5002426;28;20459;-87
2023/11/26 07:47:54;;;;;;;16.92;10.43;;;7.50;76.90;;;;;;5001654;28;20041;-82
2023/11/26 07:50:22;;;;;;;14.40;9.95;;;7.50;76.80;;;;;;4995140;28;20050;-80
2023/11/26 07:52:48;;;;;;;16.75;10.57;;;7.50;76.60;;;;;;4999672;28;20104;-78
2023/11/26 07:55:14;;;;;;;16.98;11.25;;;7.60;76.80;;;;;;4999939;28;20036;-84
2023/11/26 07:57:42;;;;;;;18.00;10.70;;;7.50;77.70;;;;;;4982812;28;20056;-82
2023/11/26 08:00:17;;;;;;;16.88;10.68;;;7.60;77.50;;;;;;4996698;28;20038;-80
2023/11/26 08:02:45;;;;;;;17.20;9.93;;;7.60;77.80;;;;;;4998654;28;20586;-81
2023/11/26 08:05:13;;;;;;;17.90;10.57;;;7.60;77.90;;;;;;4996237;28;20034;-82
2023/11/26 08:07:45;;;;;;;20.08;10.27;;;7.60;78.60;;;;;;5000158;28;20456;-83
2023/11/26 08:10:18;;;;;;;15.07;10.38;;;7.60;78.30;;;;;;4986963;28;20081;-85
2023/11/26 08:12:49;;;;;;;19.17;11.48;;;7.70;78.10;;;;;;4965776;28;20038;-84
2023/11/26 08:15:19;;;;;;;16.13;11.10;;;7.70;77.80;;;;;;4958201;28;20108;-83
2023/11/26 08:17:49;;;;;;;17.25;10.77;;;7.70;77.20;;;;;;4952767;28;20096;-82
2023/11/26 08:20:16;;;;;;;17.10;10.68;;;7.70;77.00;;;;;;5002284;28;20031;-83
2023/11/26 08:22:46;;;;;;;17.00;11.18;;;7.70;76.90;;;;;;4969053;28;20388;-81
2023/11/26 08:25:22;;;;;;;16.45;11.02;;;7.70;76.90;;;;;;4968011;28;20034;-80
2023/11/26 08:27:48;;;;;;;17.15;10.73;;;7.70;76.80;;;;;;4972527;28;20041;-80
2023/11/26 08:31:00;;;;;;;16.13;11.05;;;7.70;76.80;;;;;;5003007;28;20038;-80
2023/11/26 08:33:05;;;;;;;17.48;10.88;;;7.70;76.60;;;;;;4958800;28;20042;-81
2023/11/26 08:35:33;;;;;;;18.30;11.15;;;7.70;76.50;;;;;;5003663;28;20421;-80
2023/11/26 08:38:01;;;;;;;21.13;11.45;;;7.70;76.50;;;;;;4987003;28;20034;-82
2023/11/26 08:40:33;;;;;;;16.17;11.65;;;7.70;76.50;;;;;;5003036;28;20088;-82
2023/11/26 08:43:04;;;;;;;17.50;10.82;;;7.70;76.60;;;;;;4973603;28;20512;-83
2023/11/26 08:45:31;;;;;;;18.05;11.05;;;7.70;76.50;;;;;;4968008;28;20041;-83
2023/11/26 08:47:58;;;;;;;20.98;11.88;;;7.70;76.60;;;;;;4967913;28;20413;-83
2023/11/26 08:50:24;;;;;;;16.45;10.43;;;7.70;76.70;;;;;;5000903;28;20535;-80
2023/11/26 08:52:55;;;;;;;19.52;11.25;;;7.80;76.50;;;;;;5003039;28;20030;-80
2023/11/26 08:55:21;;;;;;;17.83;11.20;;;7.70;76.50;;;;;;4972799;28;20037;-80
2023/11/26 08:57:47;;;;;;;17.23;11.15;;;7.80;76.60;;;;;;4984340;28;20053;-80
2023/11/26 09:00:13;;;;;;;17.98;11.02;;;7.80;76.60;;;;;;4967120;28;20056;-81
2023/11/26 09:02:40;;;;;;;19.08;11.65;;;7.80;76.80;;;;;;5000345;28;20030;-80
2023/11/26 09:05:10;;;;;;;17.77;11.13;;;7.80;76.30;;;;;;4968970;28;20021;-80
2023/11/26 09:07:44;;;;;;;15.23;10.25;;;7.80;75.90;;;;;;4975638;28;20026;-80
2023/11/26 09:10:13;;;;;;;18.95;10.95;;;7.80;75.90;;;;;;4999433;28;20057;-81
2023/11/26 09:12:40;;;;;;;18.55;12.15;;;7.80;75.90;;;;;;4986122;28;20117;-81
2023/11/26 09:15:08;;;;;;;17.48;11.55;;;7.80;75.70;;;;;;4967543;28;20481;-82
2023/11/26 09:17:34;;;;;;;15.32;11.25;;;7.80;75.80;;;;;;5004470;28;20125;-84
2023/11/26 09:20:00;;;;;;;16.73;11.23;;;7.90;75.70;;;;;;4993721;28;20038;-80
2023/11/26 09:22:26;;;;;;;17.42;11.32;;;7.90;75.60;;;;;;5010166;28;20048;-81
2023/11/26 09:24:52;;;;;;;17.67;11.18;;;7.80;75.60;;;;;;4999429;28;20653;-82
2023/11/26 09:27:18;;;;;;;15.45;11.07;;;7.80;75.50;;;;;;4982771;28;20034;-82
2023/11/26 09:29:45;;;;;;;17.67;11.52;;;7.80;75.60;;;;;;4969367;28;20041;-82
2023/11/26 09:32:11;;;;;;;18.70;11.45;;;7.80;75.60;;;;;;4968826;28;20033;-84
2023/11/26 09:34:37;;;;;;;16.17;10.57;;;7.80;75.50;;;;;;4999183;28;20030;-82
2023/11/26 09:37:06;;;;;;;15.85;11.20;;;7.90;75.60;;;;;;4984488;28;20063;-84
2023/11/26 09:39:33;;;;;;;18.27;11.52;;;7.90;75.50;;;;;;5000929;28;20046;-83
2023/11/26 09:42:01;;;;;;;18.42;12.43;;;7.90;75.10;;;;;;5003203;28;20134;-84
2023/11/26 09:44:27;;;;;;;18.17;11.73;;;7.90;75.00;;;;;;4967796;28;20049;-84
2023/11/26 09:46:54;;;;;;;16.42;11.00;;;7.90;75.30;;;;;;4961562;28;20536;-83
2023/11/26 09:49:20;;;;;;;17.65;12.02;;;7.90;75.40;;;;;;4951001;28;20037;-85
2023/11/26 09:51:53;;;;;;;16.45;10.82;;;7.90;75.00;;;;;;4998595;28;20116;-84
2023/11/26 09:54:20;;;;;;;17.00;11.30;;;7.90;74.60;;;;;;5002168;28;20554;-84
2023/11/26 09:56:47;;;;;;;16.05;11.23;;;7.90;74.70;;;;;;4967384;28;20060;-84
2023/11/26 09:59:30;;;;;;;16.80;11.55;;;7.90;74.70;;;;;;4942968;28;20038;-81
2023/11/26 10:02:00;;;;;;;16.00;10.98;;;7.90;74.50;;;;;;4984948;28;20038;-88
2023/11/26 10:04:26;;;;;;;16.65;11.35;;;7.90;74.30;;;;;;4968285;28;20034;-83
2023/11/26 10:06:56;;;;;;;14.75;10.15;;;7.90;74.40;;;;;;4984673;28;20516;-82
2023/11/26 10:09:23;;;;;;;17.50;10.88;;;7.90;74.40;;;;;;4958530;28;20156;-83
2023/11/26 10:11:49;;;;;;;15.10;10.30;;;7.90;74.30;;;;;;4951814;28;20520;-81
2023/11/26 10:14:22;;;;;;;14.60;10.35;;;8.00;74.40;;;;;;4984614;28;20034;-82
2023/11/26 10:16:48;;;;;;;16.77;10.57;;;8.00;74.60;;;;;;4968337;28;20080;-82
2023/11/26 10:19:25;;;;;;;16.80;10.43;;;7.90;74.60;;;;;;4984409;28;20057;-82
2023/11/26 10:21:59;;;;;;;15.65;10.73;;;8.00;74.60;;;;;;4970582;28;20113;-83
2023/11/26 10:24:28;;;;;;;16.08;10.80;;;7.90;74.70;;;;;;4966535;28;20045;-83
2023/11/26 10:26:57;;;;;;;14.60;10.57;;;8.00;74.70;;;;;;4966706;28;20045;-85
2023/11/26 10:29:30;;;;;;;16.25;10.23;;;7.90;74.50;;;;;;5000399;28;20042;-85
2023/11/26 10:32:03;;;;;;;18.77;10.32;;;7.90;74.10;;;;;;4983602;28;20970;-83
2023/11/26 10:34:31;;;;;;;15.25;10.95;;;8.00;74.30;;;;;;4981872;28;20061;-83
2023/11/26 10:36:58;;;;;;;15.48;10.73;;;8.00;74.30;;;;;;5000760;28;20125;-87
2023/11/26 10:39:25;;;;;;;17.73;11.50;;;8.00;74.20;;;;;;4966552;28;20038;-85
2023/11/26 10:41:51;;;;;;;14.52;10.65;;;8.00;73.90;;;;;;4996695;28;20034;-85
2023/11/26 10:44:18;;;;;;;17.10;10.80;;;8.00;73.90;;;;;;4968384;28;20136;-86
2023/11/26 10:46:46;;;;;;;15.90;11.02;;;8.00;73.70;;;;;;4968993;28;20044;-86
2023/11/26 10:49:16;;;;;;;15.13;10.80;;;8.00;73.70;;;;;;4965992;28;20081;-86
2023/11/26 10:52:12;;;;;;;15.65;10.75;;;8.00;73.70;;;;;;4970980;28;20037;-83
2023/11/26 10:55:13;;;;;;;16.33;10.80;;;8.00;73.50;;;;;;4967317;28;20030;-85
2023/11/26 10:57:42;;;;;;;16.50;10.80;;;8.00;73.60;;;;;;4981628;28;20047;-85
2023/11/26 11:00:18;;;;;;;16.05;10.77;;;8.00;73.40;;;;;;4982524;28;20170;-84
2023/11/26 11:02:48;;;;;;;16.70;10.52;;;8.00;73.70;;;;;;4957509;28;20460;-83
2023/11/26 11:05:15;;;;;;;15.23;9.82;;;8.00;73.70;;;;;;4966911;28;20049;-83
2023/11/26 11:07:41;;;;;;;16.33;11.00;;;8.00;73.70;;;;;;4985426;28;20036;-83
2023/11/26 11:10:08;;;;;;;14.88;9.90;;;8.00;73.80;;;;;;4968269;28;20563;-83
2023/11/26 11:13:20;;;;;;;19.10;11.55;;;8.00;73.70;;;;;;4997485;28;20080;-84
2023/11/26 11:15:49;;;;;;;20.50;12.13;;;8.00;74.80;;;;;;4977900;28;20038;-84
2023/11/26 11:18:27;;;;;;;21.60;11.52;;;8.10;76.30;;;;;;4980094;28;20076;-85
2023/11/26 11:21:24;;;;;;;16.90;11.00;;;8.10;76.10;;;;;;4971706;28;20034;-85
2023/11/26 11:23:53;;;;;;;15.73;10.63;;;8.20;76.40;;;;;;4979765;28;20049;-83
2023/11/26 11:26:22;;;;;;;16.20;10.88;;;8.20;76.40;;;;;;4979152;28;20038;-83
2023/11/26 11:29:03;;;;;;;17.27;11.57;;;8.20;74.30;;;;;;5007523;28;20171;-85
2023/11/26 11:31:47;;;;;;;18.15;12.13;;;8.10;71.90;;;;;;5005232;28;20038;-83
2023/11/26 11:34:13;;;;;;;21.83;13.48;;;8.10;71.30;;;;;;5004860;28;20042;-84
2023/11/26 11:36:47;;;;;;;22.27;14.40;;;8.00;69.60;;;;;;4972300;28;20049;-84
2023/11/26 11:39:20;;;;;;;19.58;13.18;;;8.00;67.60;;;;;;4967500;28;20065;-85
2023/11/26 11:42:05;;;;;;;19.15;13.23;;;8.00;66.60;;;;;;4995364;28;20147;-86
2023/11/26 11:44:35;;;;;;;21.60;13.93;;;7.90;65.40;;;;;;4994361;28;20140;-86
2023/11/26 11:47:12;;;;;;;20.67;13.32;;;7.80;64.70;;;;;;5003324;28;20045;-83
2023/11/26 11:49:44;;;;;;;20.55;13.23;;;7.80;64.20;;;;;;4986625;28;20052;-86
2023/11/26 11:52:15;;;;;;;19.30;12.70;;;7.70;64.00;;;;;;5007996;28;20034;-87
2023/11/26 11:55:15;;;;;;;18.55;13.27;;;7.70;63.80;;;;;;4990397;28;20047;-87
2023/11/26 11:57:48;;;;;;;22.00;13.43;;;7.70;63.90;;;;;;4988525;28;20052;-85
2023/11/26 12:00:22;;;;;;;22.65;14.13;;;7.60;63.80;;;;;;4993550;28;20038;-86
2023/11/26 12:02:54;;;;;;;22.27;14.43;;;7.50;63.60;;;;;;5000816;28;20125;-84
2023/11/26 12:05:27;;;;;;;21.83;14.07;;;7.50;63.80;;;;;;4984077;28;20034;-86
2023/11/26 12:07:56;;;;;;;22.60;14.05;;;7.40;63.80;;;;;;4981145;28;20050;-85
2023/11/26 12:10:35;;;;;;;22.27;14.40;;;7.40;63.90;;;;;;4980201;28;20042;-85
2023/11/26 12:13:09;;;;;;;20.98;14.10;;;7.30;63.80;;;;;;4948182;28;20043;-80
2023/11/26 12:15:39;;;;;;;21.00;13.43;;;7.30;64.40;;;;;;4978546;28;20046;-80
2023/11/26 12:18:06;;;;;;;23.98;13.63;;;7.30;63.90;;;;;;4966914;28;20058;-80
2023/11/26 12:20:33;;;;;;;20.65;13.35;;;7.20;64.00;;;;;;4981780;28;20091;-79
2023/11/26 12:22:59;;;;;;;23.20;14.25;;;7.20;63.90;;;;;;4983642;28;20092;-79
2023/11/26 12:25:25;;;;;;;24.83;13.88;;;7.10;63.80;;;;;;4980078;28;20129;-83
2023/11/26 12:28:02;;;;;;;22.27;14.30;;;7.10;63.60;;;;;;4995860;28;20485;-82
2023/11/26 12:30:29;;;;;;;23.45;13.55;;;7.00;63.60;;;;;;4980204;28;20038;-82
2023/11/26 12:32:55;;;;;;;21.75;13.50;;;7.00;63.70;;;;;;4964504;28;20137;-85
2023/11/26 12:35:23;;;;;;;21.38;13.05;;;6.90;63.70;;;;;;4981419;28;20069;-84
2023/11/26 12:37:49;;;;;;;21.90;14.00;;;6.90;63.60;;;;;;4983081;28;20041;-83
2023/11/26 12:40:16;;;;;;;23.08;13.38;;;6.90;64.00;;;;;;4980492;28;20510;-83
2023/11/26 12:42:42;;;;;;;24.08;14.70;;;6.80;63.90;;;;;;4984451;28;20030;-82
2023/11/26 12:45:10;;;;;;;25.67;14.98;;;6.80;63.80;;;;;;4980001;28;20038;-81
2023/11/26 12:47:56;;;;;;;20.75;13.45;;;6.80;64.00;;;;;;4980323;28;20057;-83
2023/11/26 12:50:23;;;;;;;22.23;14.05;;;6.70;64.10;;;;;;4984273;28;20102;-84